Flight Track Log - Related Links

Times and Time Zones

All times are in EDT time to prevent confusion due to time zone crossing. See the N502QS flight status page for this flight to view local times or setup timezone preferences in your user account.

Time Position Orientation Groundspeed Altitude Reporting Facility
EDT Latitude Longitude Course Direction KTS MPH feet Rate Location/Type
Wed 08:27:53 PM 40.8450 -112.0542 314° West 247 284 8,600  Level Salt Lake Center
Wed 08:29:11 PM 40.8797 -112.1689 292° West 288 331 10,000 1,929 Climbing Salt Lake Center
Wed 08:30:13 PM 40.8864 -112.2717 275° West 285 328 13,100 3,484 Climbing Salt Lake Center
Wed 08:31:15 PM 40.8747 -112.4078 264° West 312 359 17,200 3,484 Climbing Salt Lake Center
Wed 08:32:17 PM 40.8669 -112.5219 265° West 315 362 20,300 3,048 Climbing Salt Lake Center
Wed 08:33:19 PM 40.8589 -112.6428 265° West 330 380 23,500 3,000 Climbing Salt Lake Center
Wed 08:34:21 PM 40.8494 -112.7683 264° West 343 395 26,500 2,806 Climbing Salt Lake Center
Wed 08:35:23 PM 40.8444 -112.8950 267° West 347 399 29,300 1,935 Climbing Salt Lake Center
Wed 08:36:25 PM 40.8450 -113.0339 270° West 383 441 30,500 1,344 Climbing Salt Lake Center
Wed 08:37:28 PM 40.8472 -113.2200 271° West 429 494 32,100 1,984 Climbing Salt Lake Center
Wed 08:38:29 PM 40.8461 -113.3797 270° West 435 501 34,600 2,293 Climbing Salt Lake Center
Wed 08:39:31 PM 40.8447 -113.5394 269° West 436 502 36,800 2,177 Climbing Salt Lake Center
Wed 08:40:33 PM 40.8447 -113.6986 270° West 435 501 39,100 1,935 Climbing Salt Lake Center
Wed 08:41:35 PM 40.8431 -113.8553 269° West 430 495 40,800 1,548 Climbing Salt Lake Center
Wed 08:42:37 PM 40.8439 -114.0128 270° West 430 495 42,300 919 Climbing Salt Lake Center
Wed 08:43:39 PM 40.8417 -114.1744 269° West 437 503 42,700 585 Climbing Salt Lake Center
Wed 08:44:40 PM 40.8389 -114.3714 269° West 446 513 43,500 780 Climbing Salt Lake Center
Wed 08:45:42 PM 40.8364 -114.5417 269° West 445 512 44,300 629 Climbing Salt Lake Center
Wed 08:46:44 PM 40.8314 -114.7000 268° West 450 518 44,800 339 Climbing Salt Lake Center
Wed 08:47:46 PM 40.8206 -114.8561 265° West 449 517 45,000 97 Climbing Salt Lake Center
Wed 08:48:48 PM 40.7983 -115.0369 261° West 449 517 45,000  Level Salt Lake Center
Wed 08:49:50 PM 40.7817 -115.1947 262° West 453 521 45,000  Level Salt Lake Center
Wed 08:50:51 PM 40.7606 -115.3775 261° West 451 519 45,000  Level Salt Lake Center
Wed 08:51:53 PM 40.7422 -115.5314 261° West 447 514 45,000  Level Salt Lake Center
Wed 08:52:55 PM 40.7189 -115.7125 260° West 450 518 45,000  Level Salt Lake Center
Wed 08:53:57 PM 40.7011 -115.8700 262° West 454 522 45,000  Level Salt Lake Center
Wed 08:54:58 PM 40.6819 -116.0528 262° West 452 520 45,000  Level Salt Lake Center
Wed 08:56:00 PM 40.7053 -116.2117 281° West 463 533 45,000  Level Salt Lake Center
Wed 08:57:02 PM 40.7378 -116.3711 285° West 472 543 45,000  Level Salt Lake Center
Wed 08:58:04 PM 40.7742 -116.5522 285° West 464 534 45,000  Level Salt Lake Center
Wed 08:59:08 PM 40.8061 -116.7064 285° West 461 531 45,000  Level Salt Lake Center
Wed 09:00:07 PM 40.8431 -116.8906 285° West 465 535 45,000  Level Salt Lake Center
Wed 09:01:09 PM 40.8731 -117.0494 284° West 468 539 45,000  Level Salt Lake Center
Wed 09:02:11 PM 40.9061 -117.2350 283° West 467 537 45,000 -98 Level Salt Lake Center
Wed 09:03:12 PM 40.9347 -117.3917 284° West 463 533 44,800 -1,122 Descending Salt Lake Center
Wed 09:04:14 PM 40.9700 -117.5750 284° West 462 532 42,700 -1,951 Descending Salt Lake Center
Wed 09:05:15 PM 40.9994 -117.7344 284° West 465 535 40,800 -1,707 Descending Salt Lake Center
Wed 09:06:17 PM 41.0311 -117.9153 283° West 457 526 39,200 -1,854 Descending Salt Lake Center
Wed 09:07:18 PM 41.0483 -118.0697 278° West 446 513 37,000 -2,146 Descending Salt Lake Center
Wed 09:08:20 PM 41.0600 -118.2275 276° West 448 516 34,800 -2,390 Descending Salt Lake Center
Wed 09:09:21 PM 41.0772 -118.4111 277° West 450 518 32,100 -2,341 Descending Salt Lake Center
Wed 09:10:23 PM 41.1033 -118.5692 282° West 458 527 30,000 -1,415 Descending Salt Lake Center
Wed 09:11:24 PM 41.1125 -118.7617 274° West 467 537 29,200 -1,415 Descending Salt Lake Center
Wed 09:12:26 PM 41.0986 -118.9197 263° West 458 527 27,100 -2,098 Descending Salt Lake Center
Wed 09:13:27 PM 41.0692 -119.0717 256° West 447 514 24,900 -1,918 Descending Salt Lake Center
Wed 09:14:03 PM 41.0544 -119.1689 259° West 435 501 24,000 -680 Descending Oakland Center
Wed 09:15:04 PM 41.0244 -119.3350 257° West 422 486 23,800 -590 Descending Oakland Center
Wed 09:16:05 PM 40.9475 -119.4325 224° Southwest 403 464 22,800 -976 Descending Oakland Center
Wed 09:17:07 PM 40.8636 -119.5147 217° Southwest 396 456 21,800 -927 Descending Oakland Center
Wed 09:18:08 PM 40.7733 -119.5917 213° Southwest 393 452 20,900 -878 Descending Oakland Center
Wed 09:19:10 PM 40.6733 -119.6336 198° South 381 438 20,000 -1,122 Descending Oakland Center
Wed 09:20:11 PM 40.5511 -119.6661 191° South 374 430 18,600 -1,366 Descending Oakland Center
Wed 09:21:13 PM 40.4517 -119.6642 179° South 366 421 17,200 -1,220 Descending Oakland Center
Wed 09:22:14 PM 40.3508 -119.6644 180° South 363 418 16,100 -590 Descending Oakland Center
Wed 09:23:15 PM 40.2517 -119.6636 180° South 360 414 16,000 -49 Descending Oakland Center
Wed 09:24:17 PM 40.1528 -119.6622 179° South 357 411 16,000  Level Oakland Center
Wed 09:25:18 PM 40.0531 -119.6608 179° South 357 411 16,000 -590 Level Oakland Center
Wed 09:26:19 PM 39.9522 -119.6614 180° South 361 415 14,800 -1,415 Descending Oakland Center
Wed 09:27:21 PM 39.8378 -119.6597 179° South 351 404 13,100 -1,512 Descending Oakland Center
Wed 09:28:22 PM 39.7522 -119.6589 180° South 326 375 11,700 -1,122 Descending Oakland Center
Wed 09:29:24 PM 39.6731 -119.6592 180° South 299 344 10,800 -713 Descending Oakland Center
Wed 09:30:03 PM 39.6167 -119.6500 173° South 257 296 10,500 -364 Descending Northern Cal TRACON
Wed 09:31:03 PM 39.5500 -119.6500 180° South 248 285 10,200 -150 Descending Northern Cal TRACON
Wed 09:32:03 PM 39.5000 -119.6333 166° South 234 269 10,200 -190 Level Northern Cal TRACON
Wed 09:33:09 PM 39.4333 -119.6333 180° South 229 264 9,800 -600 Descending Northern Cal TRACON
Wed 09:34:03 PM 39.3833 -119.6833 218° Southwest 196 226 9,000 -895 Descending Northern Cal TRACON
Wed 09:35:03 PM 39.3667 -119.7333 247° West 197 227 8,100 -1,053 Descending Northern Cal TRACON
Wed 09:35:57 PM 39.3833 -119.7667 303° West 166 191 7,000 -1,200 Descending Northern Cal TRACON
Wed 09:37:03 PM 39.4333 -119.7667 360° North 145 167 5,700 -1,041 Descending Northern Cal TRACON
Wed 09:37:58 PM 39.4667 -119.7667 360° North 128 147 4,900 -873 Descending Northern Cal TRACON

Login

Don't have an account? Register now (free) for customized features, flight alerts, and more!